sensor_id;sensor_type;location;lat;lon;timestamp;pressure;altitude;pressure_sealevel;temperature;humidity
78016;BME280;67223;51.102;5.882;2023-03-08T00:01:22;99948.84;;;1.53;86.04
78016;BME280;67223;51.102;5.882;2023-03-08T00:03:55;99958.81;;;1.62;85.80
78016;BME280;67223;51.102;5.882;2023-03-08T00:06:21;99957.34;;;1.42;87.14
78016;BME280;67223;51.102;5.882;2023-03-08T00:08:47;99953.97;;;1.40;85.90
78016;BME280;67223;51.102;5.882;2023-03-08T00:11:14;99959.16;;;1.26;86.42
78016;BME280;67223;51.102;5.882;2023-03-08T00:13:40;99955.59;;;1.27;87.72
78016;BME280;67223;51.102;5.882;2023-03-08T00:16:08;99953.56;;;1.32;87.62
78016;BME280;67223;51.102;5.882;2023-03-08T00:18:34;99944.72;;;1.49;87.48
78016;BME280;67223;51.102;5.882;2023-03-08T00:21:02;99944.75;;;1.33;86.82
78016;BME280;67223;51.102;5.882;2023-03-08T00:23:27;99945.72;;;1.46;87.20
78016;BME280;67223;51.102;5.882;2023-03-08T00:25:53;99943.63;;;1.37;86.88
78016;BME280;67223;51.102;5.882;2023-03-08T00:28:19;99935.63;;;1.54;86.59
78016;BME280;67223;51.102;5.882;2023-03-08T00:30:44;99932.75;;;1.43;87.45
78016;BME280;67223;51.102;5.882;2023-03-08T00:33:10;99942.84;;;1.35;86.64
78016;BME280;67223;51.102;5.882;2023-03-08T00:35:35;99933.72;;;1.26;87.46
78016;BME280;67223;51.102;5.882;2023-03-08T00:38:00;99930.69;;;1.48;86.39
78016;BME280;67223;51.102;5.882;2023-03-08T00:40:26;99927.66;;;1.40;86.91
78016;BME280;67223;51.102;5.882;2023-03-08T00:42:51;99938.91;;;1.28;87.18
78016;BME280;67223;51.102;5.882;2023-03-08T00:45:17;99936.84;;;1.33;86.24
78016;BME280;67223;51.102;5.882;2023-03-08T00:47:42;99941.69;;;1.25;87.05
78016;BME280;67223;51.102;5.882;2023-03-08T00:50:08;99938.72;;;1.31;86.66
78016;BME280;67223;51.102;5.882;2023-03-08T00:52:33;99939.28;;;1.36;86.90
78016;BME280;67223;51.102;5.882;2023-03-08T00:54:59;99937.97;;;1.29;87.29
78016;BME280;67223;51.102;5.882;2023-03-08T00:57:24;99937.69;;;1.34;88.08
78016;BME280;67223;51.102;5.882;2023-03-08T00:59:50;99942.69;;;1.38;87.05
78016;BME280;67223;51.102;5.882;2023-03-08T01:02:15;99941.00;;;1.37;86.80
78016;BME280;67223;51.102;5.882;2023-03-08T01:04:40;99941.09;;;1.20;87.87
78016;BME280;67223;51.102;5.882;2023-03-08T01:07:06;99928.41;;;1.42;86.55
78016;BME280;67223;51.102;5.882;2023-03-08T01:09:31;99918.84;;;1.41;87.40
78016;BME280;67223;51.102;5.882;2023-03-08T01:11:57;99924.81;;;1.29;87.04
78016;BME280;67223;51.102;5.882;2023-03-08T01:14:22;99912.75;;;1.25;87.44
78016;BME280;67223;51.102;5.882;2023-03-08T01:16:48;99903.47;;;1.19;87.89
78016;BME280;67223;51.102;5.882;2023-03-08T01:19:13;99905.72;;;1.25;87.70
78016;BME280;67223;51.102;5.882;2023-03-08T01:21:38;99902.09;;;1.28;87.68
78016;BME280;67223;51.102;5.882;2023-03-08T01:24:04;99894.34;;;1.25;87.15
78016;BME280;67223;51.102;5.882;2023-03-08T01:26:30;99876.47;;;1.16;87.61
78016;BME280;67223;51.102;5.882;2023-03-08T01:28:56;99875.00;;;1.26;87.57
78016;BME280;67223;51.102;5.882;2023-03-08T01:31:27;99871.66;;;1.24;87.95
78016;BME280;67223;51.102;5.882;2023-03-08T01:33:53;99876.31;;;1.19;88.44
78016;BME280;67223;51.102;5.882;2023-03-08T01:36:21;99869.94;;;1.23;87.69
78016;BME280;67223;51.102;5.882;2023-03-08T01:38:47;99863.88;;;1.37;87.82
78016;BME280;67223;51.102;5.882;2023-03-08T01:41:21;99861.31;;;1.35;87.83
78016;BME280;67223;51.102;5.882;2023-03-08T01:43:47;99861.72;;;1.43;87.77
78016;BME280;67223;51.102;5.882;2023-03-08T01:46:36;99857.22;;;1.45;87.89
78016;BME280;67223;51.102;5.882;2023-03-08T01:49:07;99843.88;;;1.48;86.80
78016;BME280;67223;51.102;5.882;2023-03-08T01:55:10;99844.88;;;1.32;87.71
78016;BME280;67223;51.102;5.882;2023-03-08T01:57:10;99838.16;;;1.56;86.41
78016;BME280;67223;51.102;5.882;2023-03-08T01:59:40;99845.31;;;1.54;86.81
78016;BME280;67223;51.102;5.882;2023-03-08T02:02:06;99850.13;;;1.32;87.30
78016;BME280;67223;51.102;5.882;2023-03-08T02:04:31;99846.09;;;1.26;87.17
78016;BME280;67223;51.102;5.882;2023-03-08T02:06:57;99853.63;;;1.32;87.42
78016;BME280;67223;51.102;5.882;2023-03-08T02:09:23;99850.69;;;1.22;86.79
78016;BME280;67223;51.102;5.882;2023-03-08T02:11:48;99848.44;;;1.30;87.03
78016;BME280;67223;51.102;5.882;2023-03-08T02:14:14;99849.47;;;1.28;86.95
78016;BME280;67223;51.102;5.882;2023-03-08T02:16:40;99848.63;;;1.27;87.88
78016;BME280;67223;51.102;5.882;2023-03-08T02:19:11;99830.31;;;1.26;86.99
78016;BME280;67223;51.102;5.882;2023-03-08T02:21:39;99820.56;;;1.28;88.08
78016;BME280;67223;51.102;5.882;2023-03-08T02:24:15;99819.38;;;1.48;88.00
78016;BME280;67223;51.102;5.882;2023-03-08T02:26:41;99809.69;;;1.62;87.28
78016;BME280;67223;51.102;5.882;2023-03-08T02:29:06;99810.97;;;1.41;86.85
78016;BME280;67223;51.102;5.882;2023-03-08T02:31:32;99802.53;;;1.50;87.24
78016;BME280;67223;51.102;5.882;2023-03-08T02:33:58;99810.41;;;1.50;86.16
78016;BME280;67223;51.102;5.882;2023-03-08T02:36:23;99803.16;;;1.25;87.57
78016;BME280;67223;51.102;5.882;2023-03-08T02:38:49;99795.38;;;1.24;86.59
78016;BME280;67223;51.102;5.882;2023-03-08T02:41:14;99802.00;;;1.15;87.13
78016;BME280;67223;51.102;5.882;2023-03-08T02:43:40;99799.09;;;1.20;87.81
78016;BME280;67223;51.102;5.882;2023-03-08T02:46:05;99801.09;;;1.16;87.58
78016;BME280;67223;51.102;5.882;2023-03-08T02:48:30;99791.28;;;1.34;87.05
78016;BME280;67223;51.102;5.882;2023-03-08T02:50:56;99788.53;;;1.36;86.49
78016;BME280;67223;51.102;5.882;2023-03-08T02:53:21;99781.13;;;1.42;86.30
78016;BME280;67223;51.102;5.882;2023-03-08T02:55:47;99779.06;;;1.47;86.02
78016;BME280;67223;51.102;5.882;2023-03-08T02:58:12;99773.88;;;1.46;86.92
78016;BME280;67223;51.102;5.882;2023-03-08T03:03:16;99774.81;;;1.30;87.20
78016;BME280;67223;51.102;5.882;2023-03-08T03:05:42;99768.53;;;1.33;85.86
78016;BME280;67223;51.102;5.882;2023-03-08T03:08:09;99749.34;;;1.31;86.84
78016;BME280;67223;51.102;5.882;2023-03-08T03:10:36;99741.38;;;1.33;86.92
78016;BME280;67223;51.102;5.882;2023-03-08T03:13:02;99753.31;;;1.24;87.29
78016;BME280;67223;51.102;5.882;2023-03-08T03:15:27;99752.63;;;1.06;86.86
78016;BME280;67223;51.102;5.882;2023-03-08T03:17:52;99749.34;;;1.31;86.75
78016;BME280;67223;51.102;5.882;2023-03-08T03:20:18;99742.78;;;1.24;87.07
78016;BME280;67223;51.102;5.882;2023-03-08T03:22:43;99744.28;;;1.14;87.03
78016;BME280;67223;51.102;5.882;2023-03-08T03:25:11;99741.19;;;1.21;86.71
78016;BME280;67223;51.102;5.882;2023-03-08T03:27:36;99738.38;;;1.24;87.57
78016;BME280;67223;51.102;5.882;2023-03-08T03:30:03;99730.94;;;1.17;87.09
78016;BME280;67223;51.102;5.882;2023-03-08T03:32:29;99732.06;;;1.13;86.99
78016;BME280;67223;51.102;5.882;2023-03-08T03:34:54;99730.66;;;1.07;87.63
78016;BME280;67223;51.102;5.882;2023-03-08T03:37:20;99726.03;;;1.11;87.63
78016;BME280;67223;51.102;5.882;2023-03-08T03:39:45;99723.13;;;1.15;88.02
78016;BME280;67223;51.102;5.882;2023-03-08T03:42:11;99715.38;;;1.14;87.95
78016;BME280;67223;51.102;5.882;2023-03-08T03:44:36;99710.47;;;1.08;86.80
78016;BME280;67223;51.102;5.882;2023-03-08T03:47:02;99714.03;;;1.07;87.43
78016;BME280;67223;51.102;5.882;2023-03-08T03:49:27;99709.13;;;0.86;86.93
78016;BME280;67223;51.102;5.882;2023-03-08T03:51:53;99710.25;;;0.82;87.79
78016;BME280;67223;51.102;5.882;2023-03-08T03:54:18;99697.59;;;1.03;88.22
78016;BME280;67223;51.102;5.882;2023-03-08T03:56:43;99698.03;;;0.81;87.20
78016;BME280;67223;51.102;5.882;2023-03-08T03:59:09;99697.88;;;0.84;87.76
78016;BME280;67223;51.102;5.882;2023-03-08T04:01:34;99692.50;;;0.72;87.66
78016;BME280;67223;51.102;5.882;2023-03-08T04:04:00;99694.75;;;0.78;88.45
78016;BME280;67223;51.102;5.882;2023-03-08T04:06:27;99689.88;;;0.86;87.42
78016;BME280;67223;51.102;5.882;2023-03-08T04:08:58;99690.34;;;0.78;87.78
78016;BME280;67223;51.102;5.882;2023-03-08T04:11:27;99688.19;;;0.85;88.70
78016;BME280;67223;51.102;5.882;2023-03-08T04:13:53;99676.06;;;0.68;87.80
78016;BME280;67223;51.102;5.882;2023-03-08T04:16:24;99670.91;;;0.81;88.74
78016;BME280;67223;51.102;5.882;2023-03-08T04:18:59;99655.06;;;0.82;87.59
78016;BME280;67223;51.102;5.882;2023-03-08T04:21:25;99657.41;;;0.73;87.63
78016;BME280;67223;51.102;5.882;2023-03-08T04:23:52;99646.69;;;0.76;87.56
78016;BME280;67223;51.102;5.882;2023-03-08T04:26:18;99644.06;;;0.76;87.96
78016;BME280;67223;51.102;5.882;2023-03-08T04:28:44;99644.84;;;0.78;88.43
78016;BME280;67223;51.102;5.882;2023-03-08T04:31:22;99637.41;;;0.70;88.04
78016;BME280;67223;51.102;5.882;2023-03-08T04:33:49;99627.22;;;0.50;88.74
78016;BME280;67223;51.102;5.882;2023-03-08T04:36:15;99626.13;;;0.54;89.18
78016;BME280;67223;51.102;5.882;2023-03-08T04:38:41;99617.63;;;0.65;88.76
78016;BME280;67223;51.102;5.882;2023-03-08T04:41:07;99621.63;;;0.70;88.11
78016;BME280;67223;51.102;5.882;2023-03-08T04:43:37;99617.22;;;0.71;88.88
78016;BME280;67223;51.102;5.882;2023-03-08T04:46:04;99612.38;;;0.65;88.33
78016;BME280;67223;51.102;5.882;2023-03-08T04:48:30;99605.78;;;0.58;89.39
78016;BME280;67223;51.102;5.882;2023-03-08T04:50:57;99600.34;;;0.61;89.19
78016;BME280;67223;51.102;5.882;2023-03-08T04:53:24;99593.09;;;0.50;88.29
78016;BME280;67223;51.102;5.882;2023-03-08T04:55:49;99588.69;;;0.51;88.62
78016;BME280;67223;51.102;5.882;2023-03-08T04:58:16;99593.09;;;0.50;88.44
78016;BME280;67223;51.102;5.882;2023-03-08T05:00:41;99584.47;;;0.48;88.69
78016;BME280;67223;51.102;5.882;2023-03-08T05:03:07;99579.03;;;0.51;89.25
78016;BME280;67223;51.102;5.882;2023-03-08T05:05:33;99578.09;;;0.52;88.38
78016;BME280;67223;51.102;5.882;2023-03-08T05:07:58;99575.66;;;0.49;88.39
78016;BME280;67223;51.102;5.882;2023-03-08T05:10:27;99569.56;;;0.49;89.10
78016;BME280;67223;51.102;5.882;2023-03-08T05:12:53;99571.91;;;0.39;89.28
78016;BME280;67223;51.102;5.882;2023-03-08T05:15:18;99560.84;;;0.34;89.15
78016;BME280;67223;51.102;5.882;2023-03-08T05:17:44;99556.03;;;0.26;88.87
78016;BME280;67223;51.102;5.882;2023-03-08T05:20:09;99549.19;;;0.38;88.57
78016;BME280;67223;51.102;5.882;2023-03-08T05:22:35;99546.75;;;0.35;89.49
78016;BME280;67223;51.102;5.882;2023-03-08T05:25:00;99535.63;;;0.60;89.96
78016;BME280;67223;51.102;5.882;2023-03-08T05:27:26;99534.19;;;0.40;89.31
78016;BME280;67223;51.102;5.882;2023-03-08T05:29:51;99524.34;;;0.43;89.51
78016;BME280;67223;51.102;5.882;2023-03-08T05:32:17;99522.47;;;0.31;89.47
78016;BME280;67223;51.102;5.882;2023-03-08T05:34:42;99513.75;;;0.45;90.03
78016;BME280;67223;51.102;5.882;2023-03-08T05:37:08;99510.53;;;0.40;90.42
78016;BME280;67223;51.102;5.882;2023-03-08T05:39:33;99502.97;;;0.64;90.22
78016;BME280;67223;51.102;5.882;2023-03-08T05:41:59;99499.41;;;0.36;90.08
78016;BME280;67223;51.102;5.882;2023-03-08T05:44:24;99493.69;;;0.58;90.53
78016;BME280;67223;51.102;5.882;2023-03-08T05:46:50;99482.34;;;0.43;90.97
78016;BME280;67223;51.102;5.882;2023-03-08T05:49:16;99475.84;;;0.35;90.73
78016;BME280;67223;51.102;5.882;2023-03-08T05:51:41;99467.97;;;0.21;90.37
78016;BME280;67223;51.102;5.882;2023-03-08T05:54:07;99460.66;;;0.26;90.33
78016;BME280;67223;51.102;5.882;2023-03-08T05:56:32;99450.00;;;0.15;90.18
78016;BME280;67223;51.102;5.882;2023-03-08T05:58:57;99450.81;;;0.15;90.43
78016;BME280;67223;51.102;5.882;2023-03-08T06:01:26;99443.69;;;0.31;90.26
78016;BME280;67223;51.102;5.882;2023-03-08T06:03:54;99438.81;;;0.25;90.93
78016;BME280;67223;51.102;5.882;2023-03-08T06:06:21;99434.97;;;0.31;90.59
78016;BME280;67223;51.102;5.882;2023-03-08T06:08:47;99434.69;;;0.21;90.72
78016;BME280;67223;51.102;5.882;2023-03-08T06:11:13;99438.94;;;0.24;90.90
78016;BME280;67223;51.102;5.882;2023-03-08T06:13:40;99431.44;;;0.18;90.56
78016;BME280;67223;51.102;5.882;2023-03-08T06:16:07;99432.75;;;0.39;91.14
78016;BME280;67223;51.102;5.882;2023-03-08T06:18:34;99419.88;;;0.20;90.06
78016;BME280;67223;51.102;5.882;2023-03-08T06:21:17;99420.66;;;0.22;90.77
78016;BME280;67223;51.102;5.882;2023-03-08T06:23:44;99408.84;;;0.29;90.60
78016;BME280;67223;51.102;5.882;2023-03-08T06:26:10;99411.06;;;0.35;90.65
78016;BME280;67223;51.102;5.882;2023-03-08T06:28:36;99398.03;;;0.34;90.54
78016;BME280;67223;51.102;5.882;2023-03-08T06:31:02;99393.34;;;0.39;90.38
78016;BME280;67223;51.102;5.882;2023-03-08T06:33:30;99397.09;;;0.21;90.48
78016;BME280;67223;51.102;5.882;2023-03-08T06:38:21;99395.03;;;0.26;90.77
78016;BME280;67223;51.102;5.882;2023-03-08T06:40:47;99382.97;;;0.23;90.21
78016;BME280;67223;51.102;5.882;2023-03-08T06:43:12;99380.13;;;0.26;89.96
78016;BME280;67223;51.102;5.882;2023-03-08T06:45:38;99384.09;;;0.19;90.62
78016;BME280;67223;51.102;5.882;2023-03-08T06:48:03;99378.56;;;0.24;90.58
78016;BME280;67223;51.102;5.882;2023-03-08T06:50:29;99380.63;;;0.19;90.42
78016;BME280;67223;51.102;5.882;2023-03-08T06:52:54;99379.13;;;0.15;90.59
78016;BME280;67223;51.102;5.882;2023-03-08T06:55:20;99378.94;;;0.18;89.98
78016;BME280;67223;51.102;5.882;2023-03-08T06:57:45;99381.34;;;0.21;90.81
78016;BME280;67223;51.102;5.882;2023-03-08T07:00:12;99374.81;;;0.14;90.71
78016;BME280;67223;51.102;5.882;2023-03-08T07:02:37;99384.84;;;0.07;90.42
78016;BME280;67223;51.102;5.882;2023-03-08T07:05:03;99393.56;;;0.08;91.00
78016;BME280;67223;51.102;5.882;2023-03-08T07:07:29;99380.91;;;0.14;90.67
78016;BME280;67223;51.102;5.882;2023-03-08T07:09:54;99373.88;;;0.15;90.75
78016;BME280;67223;51.102;5.882;2023-03-08T07:12:20;99366.00;;;0.15;90.71
78016;BME280;67223;51.102;5.882;2023-03-08T07:14:45;99353.44;;;0.20;89.96
78016;BME280;67223;51.102;5.882;2023-03-08T07:17:11;99346.69;;;0.16;90.22
78016;BME280;67223;51.102;5.882;2023-03-08T07:19:36;99341.41;;;0.16;90.64
78016;BME280;67223;51.102;5.882;2023-03-08T07:22:02;99346.94;;;0.25;90.85
78016;BME280;67223;51.102;5.882;2023-03-08T07:24:27;99343.28;;;0.28;90.84
78016;BME280;67223;51.102;5.882;2023-03-08T07:26:52;99336.19;;;0.30;90.82
78016;BME280;67223;51.102;5.882;2023-03-08T07:29:18;99321.31;;;0.43;91.42
78016;BME280;67223;51.102;5.882;2023-03-08T07:31:43;99328.72;;;0.36;91.92
78016;BME280;67223;51.102;5.882;2023-03-08T07:34:09;99329.22;;;0.29;91.46
78016;BME280;67223;51.102;5.882;2023-03-08T07:36:34;99313.94;;;0.21;91.20
78016;BME280;67223;51.102;5.882;2023-03-08T07:38:59;99314.72;;;0.23;91.60
78016;BME280;67223;51.102;5.882;2023-03-08T07:41:25;99311.94;;;0.66;91.54
78016;BME280;67223;51.102;5.882;2023-03-08T07:43:54;99311.03;;;0.26;91.90
78016;BME280;67223;51.102;5.882;2023-03-08T07:46:20;99301.25;;;0.42;91.78
78016;BME280;67223;51.102;5.882;2023-03-08T07:48:45;99294.91;;;0.32;91.93
78016;BME280;67223;51.102;5.882;2023-03-08T07:51:10;99301.88;;;0.46;91.88
78016;BME280;67223;51.102;5.882;2023-03-08T07:53:36;99290.59;;;0.31;92.16
78016;BME280;67223;51.102;5.882;2023-03-08T07:56:02;99293.03;;;0.34;91.74
78016;BME280;67223;51.102;5.882;2023-03-08T07:58:28;99285.09;;;0.48;92.45
78016;BME280;67223;51.102;5.882;2023-03-08T08:00:53;99287.66;;;0.35;92.12
78016;BME280;67223;51.102;5.882;2023-03-08T08:03:20;99274.81;;;0.31;91.62
78016;BME280;67223;51.102;5.882;2023-03-08T08:05:45;99267.56;;;0.22;91.43
78016;BME280;67223;51.102;5.882;2023-03-08T08:08:11;99262.69;;;0.16;91.75
78016;BME280;67223;51.102;5.882;2023-03-08T08:10:39;99268.47;;;0.21;91.24
78016;BME280;67223;51.102;5.882;2023-03-08T08:13:05;99270.13;;;0.36;90.81
78016;BME280;67223;51.102;5.882;2023-03-08T08:15:30;99272.19;;;0.31;91.48
78016;BME280;67223;51.102;5.882;2023-03-08T08:17:57;99266.88;;;0.32;91.01
78016;BME280;67223;51.102;5.882;2023-03-08T08:20:23;99261.06;;;0.27;91.48
78016;BME280;67223;51.102;5.882;2023-03-08T08:22:49;99261.69;;;0.31;90.98
78016;BME280;67223;51.102;5.882;2023-03-08T08:25:17;99251.56;;;0.39;91.01
78016;BME280;67223;51.102;5.882;2023-03-08T08:27:43;99247.63;;;0.32;90.74
78016;BME280;67223;51.102;5.882;2023-03-08T08:30:13;99234.97;;;0.38;91.08
78016;BME280;67223;51.102;5.882;2023-03-08T08:32:39;99224.16;;;0.43;90.80
78016;BME280;67223;51.102;5.882;2023-03-08T08:35:05;99211.97;;;0.42;90.32
78016;BME280;67223;51.102;5.882;2023-03-08T08:37:32;99212.19;;;0.39;90.43
78016;BME280;67223;51.102;5.882;2023-03-08T08:39:58;99218.38;;;0.38;90.71
78016;BME280;67223;51.102;5.882;2023-03-08T08:42:24;99220.06;;;0.52;90.68
78016;BME280;67223;51.102;5.882;2023-03-08T08:44:51;99219.44;;;0.48;91.18
78016;BME280;67223;51.102;5.882;2023-03-08T08:47:17;99219.47;;;0.61;90.24
78016;BME280;67223;51.102;5.882;2023-03-08T08:49:43;99220.00;;;0.66;90.91
78016;BME280;67223;51.102;5.882;2023-03-08T08:52:08;99211.03;;;0.56;89.66
78016;BME280;67223;51.102;5.882;2023-03-08T08:54:34;99204.16;;;0.67;89.91
78016;BME280;67223;51.102;5.882;2023-03-08T08:57:02;99200.06;;;0.76;90.34
78016;BME280;67223;51.102;5.882;2023-03-08T08:59:27;99201.53;;;0.67;90.26
78016;BME280;67223;51.102;5.882;2023-03-08T09:01:52;99206.16;;;0.76;89.51
78016;BME280;67223;51.102;5.882;2023-03-08T09:04:18;99207.53;;;0.82;90.55
78016;BME280;67223;51.102;5.882;2023-03-08T09:06:44;99216.25;;;0.82;90.59
78016;BME280;67223;51.102;5.882;2023-03-08T09:09:11;99200.91;;;1.02;90.40
78016;BME280;67223;51.102;5.882;2023-03-08T09:11:36;99198.16;;;0.91;89.75
78016;BME280;67223;51.102;5.882;2023-03-08T09:14:02;99211.09;;;0.81;88.81
78016;BME280;67223;51.102;5.882;2023-03-08T09:16:29;99213.09;;;0.77;89.10
78016;BME280;67223;51.102;5.882;2023-03-08T09:18:56;99207.03;;;0.90;89.24
78016;BME280;67223;51.102;5.882;2023-03-08T09:21:23;99200.94;;;0.89;89.80
78016;BME280;67223;51.102;5.882;2023-03-08T09:23:49;99205.44;;;0.87;89.71
78016;BME280;67223;51.102;5.882;2023-03-08T09:26:15;99200.38;;;0.97;89.14
78016;BME280;67223;51.102;5.882;2023-03-08T09:28:41;99201.31;;;0.96;88.46
78016;BME280;67223;51.102;5.882;2023-03-08T09:31:09;99196.91;;;0.96;88.81
78016;BME280;67223;51.102;5.882;2023-03-08T09:33:41;99199.22;;;1.01;88.38
78016;BME280;67223;51.102;5.882;2023-03-08T09:36:07;99196.50;;;0.90;89.41
78016;BME280;67223;51.102;5.882;2023-03-08T09:38:32;99200.06;;;0.76;88.31
78016;BME280;67223;51.102;5.882;2023-03-08T09:46:29;99167.09;;;0.84;88.77
78016;BME280;67223;51.102;5.882;2023-03-08T09:48:58;99167.47;;;0.91;88.36
78016;BME280;67223;51.102;5.882;2023-03-08T09:51:30;99165.59;;;1.06;88.79
78016;BME280;67223;51.102;5.882;2023-03-08T09:54:02;99172.22;;;0.99;88.09
78016;BME280;67223;51.102;5.882;2023-03-08T09:56:36;99179.28;;;0.98;89.25
78016;BME280;67223;51.102;5.882;2023-03-08T09:59:13;99175.25;;;1.05;89.18
78016;BME280;67223;51.102;5.882;2023-03-08T10:15:27;99148.19;;;1.41;88.51
78016;BME280;67223;51.102;5.882;2023-03-08T10:20:24;99144.63;;;1.42;88.82
78016;BME280;67223;51.102;5.882;2023-03-08T10:23:19;99136.06;;;1.51;89.09
78016;BME280;67223;51.102;5.882;2023-03-08T10:25:46;99130.84;;;1.39;87.63
78016;BME280;67223;51.102;5.882;2023-03-08T10:28:20;99127.25;;;1.40;88.54
78016;BME280;67223;51.102;5.882;2023-03-08T10:31:28;99114.75;;;1.43;87.94
78016;BME280;67223;51.102;5.882;2023-03-08T10:34:05;99121.31;;;1.61;88.09
78016;BME280;67223;51.102;5.882;2023-03-08T10:36:49;99120.69;;;1.82;87.31
78016;BME280;67223;51.102;5.882;2023-03-08T10:39:15;99104.72;;;1.96;87.14
78016;BME280;67223;51.102;5.882;2023-03-08T10:41:47;99097.53;;;1.87;87.26
78016;BME280;67223;51.102;5.882;2023-03-08T10:44:27;99110.44;;;1.90;87.53
78016;BME280;67223;51.102;5.882;2023-03-08T10:46:54;99103.66;;;2.22;86.71
78016;BME280;67223;51.102;5.882;2023-03-08T10:49:23;99115.84;;;1.88;86.33
78016;BME280;67223;51.102;5.882;2023-03-08T10:52:27;99113.56;;;1.95;85.93
78016;BME280;67223;51.102;5.882;2023-03-08T10:55:20;99112.69;;;2.07;86.00
78016;BME280;67223;51.102;5.882;2023-03-08T10:57:59;99112.44;;;2.10;85.78
78016;BME280;67223;51.102;5.882;2023-03-08T11:00:34;99119.06;;;2.15;85.90
78016;BME280;67223;51.102;5.882;2023-03-08T11:03:24;99114.22;;;2.09;85.81
78016;BME280;67223;51.102;5.882;2023-03-08T11:08:25;99104.28;;;2.02;86.23
78016;BME280;67223;51.102;5.882;2023-03-08T11:13:30;99098.06;;;2.03;85.85
78016;BME280;67223;51.102;5.882;2023-03-08T11:18:52;99098.47;;;2.21;85.93
78016;BME280;67223;51.102;5.882;2023-03-08T11:22:17;99104.69;;;2.08;85.47
78016;BME280;67223;51.102;5.882;2023-03-08T11:32:43;99131.38;;;2.39;85.97
78016;BME280;67223;51.102;5.882;2023-03-08T11:35:13;99122.28;;;2.43;85.72
78016;BME280;67223;51.102;5.882;2023-03-08T11:37:58;99125.00;;;2.41;85.99
78016;BME280;67223;51.102;5.882;2023-03-08T11:40:46;99120.84;;;2.50;85.10
78016;BME280;67223;51.102;5.882;2023-03-08T11:54:01;99082.44;;;2.58;85.52
78016;BME280;67223;51.102;5.882;2023-03-08T11:56:58;99076.44;;;2.90;86.04
78016;BME280;67223;51.102;5.882;2023-03-08T11:59:34;99079.56;;;3.28;84.90
78016;BME280;67223;51.102;5.882;2023-03-08T12:07:38;99071.88;;;3.14;84.05
78016;BME280;67223;51.102;5.882;2023-03-08T12:10:17;99065.53;;;2.94;83.81
78016;BME280;67223;51.102;5.882;2023-03-08T12:12:50;99070.59;;;3.09;83.64
78016;BME280;67223;51.102;5.882;2023-03-08T12:17:55;99071.28;;;3.22;83.80
78016;BME280;67223;51.102;5.882;2023-03-08T12:20:26;99055.84;;;3.17;83.51
78016;BME280;67223;51.102;5.882;2023-03-08T12:23:09;99063.97;;;3.25;83.70
78016;BME280;67223;51.102;5.882;2023-03-08T12:25:41;99056.06;;;3.14;83.66
78016;BME280;67223;51.102;5.882;2023-03-08T12:28:21;99051.78;;;3.13;83.56
78016;BME280;67223;51.102;5.882;2023-03-08T12:33:17;99034.19;;;3.45;83.71
78016;BME280;67223;51.102;5.882;2023-03-08T12:35:54;99053.34;;;2.93;84.16
78016;BME280;67223;51.102;5.882;2023-03-08T12:56:27;99059.91;;;2.66;85.64
78016;BME280;67223;51.102;5.882;2023-03-08T12:59:00;99059.22;;;2.64;85.21
78016;BME280;67223;51.102;5.882;2023-03-08T13:01:42;99040.41;;;2.68;85.52
78016;BME280;67223;51.102;5.882;2023-03-08T13:04:37;99036.66;;;2.59;85.51
78016;BME280;67223;51.102;5.882;2023-03-08T13:12:35;99042.56;;;2.63;86.25
78016;BME280;67223;51.102;5.882;2023-03-08T13:17:35;99033.19;;;2.48;86.01
78016;BME280;67223;51.102;5.882;2023-03-08T13:20:39;99031.88;;;2.65;86.54
78016;BME280;67223;51.102;5.882;2023-03-08T13:26:03;99020.13;;;2.46;86.50
78016;BME280;67223;51.102;5.882;2023-03-08T13:28:38;99014.03;;;2.46;86.25
78016;BME280;67223;51.102;5.882;2023-03-08T13:31:14;99014.41;;;2.52;86.97
78016;BME280;67223;51.102;5.882;2023-03-08T13:33:47;99015.56;;;2.37;86.99
78016;BME280;67223;51.102;5.882;2023-03-08T13:36:30;99024.78;;;2.32;86.49
78016;BME280;67223;51.102;5.882;2023-03-08T13:39:05;99023.00;;;2.32;87.17
78016;BME280;67223;51.102;5.882;2023-03-08T13:41:39;99014.84;;;2.24;86.89
78016;BME280;67223;51.102;5.882;2023-03-08T13:44:16;99020.28;;;2.10;86.76
78016;BME280;67223;51.102;5.882;2023-03-08T13:46:42;99023.31;;;2.16;87.06
78016;BME280;67223;51.102;5.882;2023-03-08T13:49:13;99022.75;;;2.24;86.65
78016;BME280;67223;51.102;5.882;2023-03-08T13:51:41;99018.06;;;2.16;86.78
78016;BME280;67223;51.102;5.882;2023-03-08T13:54:13;99013.38;;;2.20;87.14
78016;BME280;67223;51.102;5.882;2023-03-08T13:56:40;99011.25;;;2.14;86.51
78016;BME280;67223;51.102;5.882;2023-03-08T13:59:05;99015.81;;;2.23;87.21
78016;BME280;67223;51.102;5.882;2023-03-08T14:01:31;99021.78;;;2.25;87.58
78016;BME280;67223;51.102;5.882;2023-03-08T14:03:56;99015.53;;;2.15;86.97
78016;BME280;67223;51.102;5.882;2023-03-08T14:06:28;99008.13;;;2.20;87.41
78016;BME280;67223;51.102;5.882;2023-03-08T14:08:54;99003.69;;;2.21;87.59
78016;BME280;67223;51.102;5.882;2023-03-08T14:11:29;99012.69;;;2.18;87.48
78016;BME280;67223;51.102;5.882;2023-03-08T14:13:56;99007.28;;;2.20;87.24
78016;BME280;67223;51.102;5.882;2023-03-08T14:16:40;99003.66;;;2.09;87.25
78016;BME280;67223;51.102;5.882;2023-03-08T14:19:25;99003.94;;;2.17;87.05
78016;BME280;67223;51.102;5.882;2023-03-08T14:21:54;99000.94;;;2.22;87.58
78016;BME280;67223;51.102;5.882;2023-03-08T14:24:23;99013.50;;;2.30;86.45
78016;BME280;67223;51.102;5.882;2023-03-08T14:26:58;99012.91;;;2.26;87.70
78016;BME280;67223;51.102;5.882;2023-03-08T14:29:27;99013.78;;;2.38;86.83
78016;BME280;67223;51.102;5.882;2023-03-08T14:32:05;99016.78;;;2.33;86.90
78016;BME280;67223;51.102;5.882;2023-03-08T14:34:47;99012.34;;;2.34;87.12
78016;BME280;67223;51.102;5.882;2023-03-08T14:37:22;99012.47;;;2.32;87.48
78016;BME280;67223;51.102;5.882;2023-03-08T14:39:51;99010.19;;;2.28;86.97
78016;BME280;67223;51.102;5.882;2023-03-08T14:42:26;99016.53;;;2.36;87.30
78016;BME280;67223;51.102;5.882;2023-03-08T14:45:03;99021.41;;;2.30;87.29
78016;BME280;67223;51.102;5.882;2023-03-08T14:47:33;99020.22;;;2.23;87.37
78016;BME280;67223;51.102;5.882;2023-03-08T14:50:18;99009.22;;;2.40;88.69
78016;BME280;67223;51.102;5.882;2023-03-08T14:52:46;99000.47;;;2.39;88.11
78016;BME280;67223;51.102;5.882;2023-03-08T14:55:21;99012.47;;;2.32;88.45